Time;durP1;ratioP1;P1;durP2;ratioP2;P2;SDS_P1;SDS_P2;PMS_P1;PMS_P2;Temp;Humidity;BMP_temperature;BMP_pressure;BME280_temperature;BME280_humidity;BME280_pressure;Samples;Min_cycle;Max_cycle;Signal;HPM_P1;HPM_P2
2022/12/30 00:01:08;;;;;;;;;;;23.30;99.90;;;;;;5037014;28;20012;-67
2022/12/30 00:03:35;;;;;;;;;;;23.50;99.90;;;;;;5047323;28;19956;-67
2022/12/30 00:06:02;;;;;;;;;;;23.70;99.90;;;;;;5040715;28;19913;-66
2022/12/30 00:08:47;;;;;;;;;;;23.60;99.90;;;;;;5037289;28;20777;-65
2022/12/30 00:11:17;;;;;;;;;;;23.70;99.90;;;;;;5036624;28;20725;-66
2022/12/30 00:33:19;;;;;;;;;;;24.30;99.90;;;;;;5038178;28;19915;-68
2022/12/30 00:35:46;;;;;;;;;;;24.30;99.90;;;;;;5037249;28;20420;-67
2022/12/30 00:38:16;;;;;;;;;;;24.30;99.90;;;;;;5035628;28;20602;-68
2022/12/30 00:43:07;;;;;;;;;;;24.30;99.90;;;;;;5037735;28;19913;-66
2022/12/30 00:43:29;;;;;;;;;;;24.30;99.90;;;;;;5036083;28;20265;-68
2022/12/30 00:45:56;;;;;;;;;;;24.40;99.90;;;;;;5037846;28;19916;-65
2022/12/30 00:56:36;;;;;;;;;;;25.30;99.90;;;;;;5046746;28;20586;-67
2022/12/30 00:59:04;;;;;;;;;;;25.30;99.90;;;;;;5055686;28;20469;-67
2022/12/30 01:01:31;;;;;;;;;;;25.30;99.90;;;;;;5055727;28;19932;-67
2022/12/30 01:03:57;;;;;;;;;;;25.20;99.90;;;;;;5057361;28;20007;-67
2022/12/30 01:06:24;;;;;;;;;;;25.20;99.90;;;;;;5035401;28;19913;-67
2022/12/30 01:08:51;;;;;;;;;;;25.00;99.90;;;;;;5036824;28;20011;-66
2022/12/30 01:11:17;;;;;;;;;;;24.80;99.90;;;;;;5036669;28;19917;-66
2022/12/30 01:13:45;;;;;;;;;;;24.70;99.90;;;;;;5036301;28;20148;-66
2022/12/30 01:16:12;;;;;;;;;;;24.50;99.90;;;;;;5035968;28;19912;-67
2022/12/30 01:18:39;;;;;;;;;;;24.40;99.90;;;;;;5054503;28;19966;-66
2022/12/30 01:21:07;;;;;;;;;;;24.40;99.90;;;;;;5057198;28;20316;-67
2022/12/30 01:23:34;;;;;;;;;;;24.40;99.90;;;;;;5054719;28;19916;-68
2022/12/30 01:26:01;;;;;;;;;;;24.40;99.90;;;;;;5040930;28;19967;-66
2022/12/30 01:28:32;;;;;;;;;;;24.50;99.90;;;;;;5052085;28;19978;-66
2022/12/30 01:30:59;;;;;;;;;;;24.60;99.90;;;;;;5056381;28;19908;-65
2022/12/30 01:33:26;;;;;;;;;;;24.80;99.90;;;;;;5054744;28;20432;-67
2022/12/30 01:35:53;;;;;;;;;;;25.00;99.90;;;;;;5041340;28;20015;-64
2022/12/30 01:38:19;;;;;;;;;;;25.10;99.90;;;;;;5036140;28;19909;-66
2022/12/30 01:40:46;;;;;;;;;;;25.30;99.90;;;;;;5034747;28;20712;-67
2022/12/30 01:43:13;;;;;;;;;;;25.30;99.90;;;;;;5036130;28;19964;-67
2022/12/30 01:45:41;;;;;;;;;;;25.20;99.90;;;;;;5034682;28;19916;-67
2022/12/30 01:48:20;;;;;;;;;;;25.20;99.90;;;;;;5036333;28;19916;-66
2022/12/30 01:50:56;;;;;;;;;;;25.20;99.90;;;;;;5032957;28;20568;-67
2022/12/30 01:53:31;;;;;;;;;;;25.00;99.90;;;;;;5036492;28;19962;-67
2022/12/30 01:56:03;;;;;;;;;;;24.90;99.90;;;;;;5036120;28;19908;-67
2022/12/30 01:58:33;;;;;;;;;;;24.90;99.90;;;;;;5043489;28;19985;-64
2022/12/30 02:01:00;;;;;;;;;;;24.70;99.90;;;;;;5055513;28;20341;-66
2022/12/30 02:03:30;;;;;;;;;;;24.70;99.90;;;;;;5055852;28;19974;-66
2022/12/30 02:05:57;;;;;;;;;;;24.60;99.90;;;;;;5040051;28;19916;-64
2022/12/30 02:08:24;;;;;;;;;;;24.70;99.90;;;;;;5036028;28;20600;-64
2022/12/30 02:10:52;;;;;;;;;;;24.80;99.90;;;;;;5035361;28;19913;-68
2022/12/30 02:13:19;;;;;;;;;;;24.90;99.90;;;;;;5035477;28;19909;-66
2022/12/30 02:15:59;;;;;;;;;;;25.00;99.90;;;;;;5034055;28;19952;-66
2022/12/30 02:18:44;;;;;;;;;;;25.20;99.90;;;;;;5036013;28;20320;-67
2022/12/30 02:21:29;;;;;;;;;;;25.40;99.90;;;;;;5036258;28;19956;-68
2022/12/30 02:24:17;;;;;;;;;;;25.20;99.90;;;;;;5035059;28;20015;-68
2022/12/30 02:26:44;;;;;;;;;;;25.10;99.90;;;;;;5039010;28;19908;-68
2022/12/30 02:29:11;;;;;;;;;;;25.10;99.90;;;;;;5055329;28;20277;-69
2022/12/30 02:31:37;;;;;;;;;;;25.30;99.90;;;;;;5054582;28;20404;-68
2022/12/30 02:34:07;;;;;;;;;;;25.50;99.90;;;;;;5056057;28;19928;-68
2022/12/30 02:36:45;;;;;;;;;;;25.40;99.90;;;;;;5054932;28;19999;-67
2022/12/30 02:39:16;;;;;;;;;;;25.60;99.90;;;;;;5055836;28;19916;-67
2022/12/30 02:44:52;;;;;;;;;;;25.90;99.90;;;;;;5055303;28;19923;-68
2022/12/30 02:47:21;;;;;;;;;;;26.10;99.90;;;;;;5055665;28;19931;-66
2022/12/30 02:52:14;;;;;;;;;;;26.10;99.90;;;;;;5050931;28;20258;-67
2022/12/30 02:52:36;;;;;;;;;;;26.20;99.90;;;;;;5035430;28;19909;-67
2022/12/30 02:55:03;;;;;;;;;;;26.70;99.90;;;;;;5035796;28;19916;-66
2022/12/30 02:57:31;;;;;;;;;;;26.60;99.90;;;;;;5045484;28;19916;-67
2022/12/30 03:06:04;;;;;;;;;;;26.30;98.90;;;;;;5054088;28;19962;-68
2022/12/30 03:08:34;;;;;;;;;;;26.20;99.10;;;;;;5041343;28;19920;-68
2022/12/30 03:11:17;;;;;;;;;;;26.00;98.30;;;;;;5033580;28;20628;-69
2022/12/30 03:13:53;;;;;;;;;;;25.70;98.10;;;;;;5033915;28;19952;-67
2022/12/30 03:16:39;;;;;;;;;;;25.70;98.90;;;;;;5037298;28;19909;-67
2022/12/30 03:19:14;;;;;;;;;;;25.70;99.00;;;;;;5059088;28;19915;-66
2022/12/30 03:21:41;;;;;;;;;;;25.70;99.80;;;;;;5057609;28;19962;-67
2022/12/30 03:27:03;;;;;;;;;;;25.30;99.90;;;;;;5049598;28;19919;-67
2022/12/30 03:29:36;;;;;;;;;;;25.40;99.90;;;;;;5058859;28;20357;-67
2022/12/30 03:32:04;;;;;;;;;;;25.70;99.90;;;;;;5056933;28;19916;-66
2022/12/30 03:34:30;;;;;;;;;;;26.00;98.90;;;;;;5058139;28;19920;-67
2022/12/30 03:37:01;;;;;;;;;;;26.20;98.10;;;;;;5058112;28;20352;-66
2022/12/30 03:39:40;;;;;;;;;;;26.50;98.00;;;;;;5052530;28;20289;-67
2022/12/30 03:42:07;;;;;;;;;;;26.50;98.20;;;;;;5038237;28;19916;-69
2022/12/30 03:44:34;;;;;;;;;;;26.30;97.80;;;;;;5038275;28;19963;-67
2022/12/30 03:47:00;;;;;;;;;;;26.30;97.60;;;;;;5045221;28;19909;-65
2022/12/30 03:49:27;;;;;;;;;;;25.90;97.60;;;;;;5059647;28;19916;-67
2022/12/30 03:51:54;;;;;;;;;;;25.70;98.90;;;;;;5057247;28;19998;-66
2022/12/30 03:54:20;;;;;;;;;;;25.60;99.20;;;;;;5059133;28;19908;-68
2022/12/30 03:56:47;;;;;;;;;;;25.70;98.90;;;;;;5056974;28;19919;-66
2022/12/30 03:59:13;;;;;;;;;;;25.80;99.10;;;;;;5058050;28;19908;-67
2022/12/30 04:01:40;;;;;;;;;;;25.90;98.90;;;;;;5057774;28;19916;-69
2022/12/30 04:04:07;;;;;;;;;;;25.90;98.30;;;;;;5056828;28;19923;-65
2022/12/30 04:06:33;;;;;;;;;;;25.90;99.10;;;;;;5056502;28;19908;-68
2022/12/30 04:09:00;;;;;;;;;;;26.00;99.10;;;;;;5056968;28;20299;-68
2022/12/30 04:11:26;;;;;;;;;;;26.00;99.50;;;;;;5059386;28;20281;-66
2022/12/30 04:13:53;;;;;;;;;;;26.10;99.90;;;;;;5056502;28;19909;-66
2022/12/30 04:16:23;;;;;;;;;;;26.30;99.90;;;;;;5057509;28;19908;-67
2022/12/30 04:18:50;;;;;;;;;;;26.70;98.60;;;;;;5057904;28;19912;-67
2022/12/30 04:21:16;;;;;;;;;;;27.00;97.60;;;;;;5057798;28;19908;-69
2022/12/30 04:23:43;;;;;;;;;;;27.60;98.00;;;;;;5059179;28;20154;-66
2022/12/30 04:26:10;;;;;;;;;;;28.90;96.00;;;;;;5056000;28;20429;-68
2022/12/30 04:28:36;;;;;;;;;;;29.20;94.20;;;;;;5058419;28;19978;-67
2022/12/30 04:31:03;;;;;;;;;;;29.20;94.20;;;;;;5054604;28;20012;-68
2022/12/30 04:33:31;;;;;;;;;;;29.40;93.60;;;;;;5057671;28;19962;-64
2022/12/30 04:35:57;;;;;;;;;;;29.60;93.50;;;;;;5055949;28;19916;-67
2022/12/30 04:38:24;;;;;;;;;;;29.30;93.80;;;;;;5060587;28;20372;-66
2022/12/30 04:40:51;;;;;;;;;;;28.60;94.90;;;;;;5058480;28;19919;-66
2022/12/30 04:43:18;;;;;;;;;;;28.50;94.70;;;;;;5058405;28;19917;-65
2022/12/30 04:45:44;;;;;;;;;;;28.30;95.10;;;;;;5058030;28;20714;-64
2022/12/30 04:48:11;;;;;;;;;;;28.10;95.40;;;;;;5055733;28;19935;-67
2022/12/30 04:50:41;;;;;;;;;;;27.80;96.10;;;;;;5059867;28;19909;-66
2022/12/30 04:53:07;;;;;;;;;;;27.80;96.20;;;;;;5055236;28;19909;-65
2022/12/30 04:55:34;;;;;;;;;;;27.60;96.20;;;;;;5057922;28;19909;-67
2022/12/30 04:58:01;;;;;;;;;;;27.20;96.40;;;;;;5057059;28;20353;-65
2022/12/30 05:00:27;;;;;;;;;;;26.90;96.60;;;;;;5058916;28;19923;-66
2022/12/30 05:02:54;;;;;;;;;;;26.90;97.20;;;;;;5058080;28;20005;-65
2022/12/30 05:05:21;;;;;;;;;;;27.20;97.50;;;;;;5057016;28;19916;-67
2022/12/30 05:07:47;;;;;;;;;;;27.90;96.30;;;;;;5057889;28;19908;-66
2022/12/30 05:10:14;;;;;;;;;;;28.50;95.40;;;;;;5056512;28;20555;-67
2022/12/30 05:12:40;;;;;;;;;;;28.90;95.20;;;;;;5057792;28;19916;-66
2022/12/30 05:15:07;;;;;;;;;;;29.30;92.50;;;;;;5057381;28;19909;-67
2022/12/30 05:17:34;;;;;;;;;;;28.90;93.70;;;;;;5056602;28;19909;-67
2022/12/30 05:20:01;;;;;;;;;;;28.90;93.00;;;;;;5057112;28;19909;-67
2022/12/30 05:22:27;;;;;;;;;;;29.10;93.70;;;;;;5059822;28;19915;-69
2022/12/30 05:27:39;;;;;;;;;;;29.00;93.00;;;;;;5059369;28;19923;-65
2022/12/30 05:30:06;;;;;;;;;;;28.50;94.10;;;;;;5055610;28;19909;-66
2022/12/30 05:32:32;;;;;;;;;;;27.90;94.40;;;;;;5057928;28;19908;-67
2022/12/30 05:34:59;;;;;;;;;;;27.70;95.40;;;;;;5058449;28;19921;-67
2022/12/30 05:37:26;;;;;;;;;;;27.80;95.30;;;;;;5055793;28;19908;-69
2022/12/30 05:39:52;;;;;;;;;;;27.90;95.70;;;;;;5050923;28;19917;-68
2022/12/30 05:42:19;;;;;;;;;;;28.10;95.10;;;;;;5050445;28;19904;-66
2022/12/30 05:44:46;;;;;;;;;;;28.10;95.20;;;;;;5056599;28;19916;-66
2022/12/30 05:47:12;;;;;;;;;;;28.00;95.00;;;;;;5056695;28;19919;-67
2022/12/30 05:49:39;;;;;;;;;;;27.60;96.00;;;;;;5056828;28;19908;-65
2022/12/30 05:52:05;;;;;;;;;;;27.30;96.50;;;;;;5040213;28;19909;-66
2022/12/30 05:54:32;;;;;;;;;;;27.10;96.70;;;;;;5037788;28;20354;-67
2022/12/30 05:56:59;;;;;;;;;;;27.00;96.50;;;;;;5037263;28;19909;-66
2022/12/30 05:59:25;;;;;;;;;;;26.70;96.60;;;;;;5034473;28;19943;-67
2022/12/30 06:01:52;;;;;;;;;;;26.60;96.90;;;;;;5037102;28;19912;-68
2022/12/30 06:04:19;;;;;;;;;;;26.50;97.10;;;;;;5037285;28;19917;-69
2022/12/30 06:06:45;;;;;;;;;;;26.30;97.60;;;;;;5034733;28;20277;-69
2022/12/30 06:09:12;;;;;;;;;;;26.10;97.50;;;;;;5036759;28;19924;-68
2022/12/30 06:11:39;;;;;;;;;;;26.00;97.30;;;;;;5034931;28;20003;-68
2022/12/30 06:14:05;;;;;;;;;;;25.70;97.90;;;;;;5038243;28;19963;-67
2022/12/30 06:16:32;;;;;;;;;;;25.60;98.70;;;;;;5038079;28;20366;-66
2022/12/30 06:18:58;;;;;;;;;;;25.50;99.20;;;;;;5035137;28;19932;-68
2022/12/30 06:21:25;;;;;;;;;;;25.20;99.30;;;;;;5038100;28;19916;-69
2022/12/30 06:23:52;;;;;;;;;;;25.00;99.80;;;;;;5033542;28;19923;-68
2022/12/30 06:26:18;;;;;;;;;;;24.90;99.80;;;;;;5038912;28;19913;-67
2022/12/30 06:28:45;;;;;;;;;;;25.00;99.80;;;;;;5035941;28;19909;-67
2022/12/30 06:31:12;;;;;;;;;;;25.20;99.60;;;;;;5039137;28;20024;-67
2022/12/30 06:33:39;;;;;;;;;;;25.20;99.80;;;;;;5037844;28;20445;-69
2022/12/30 06:36:05;;;;;;;;;;;25.30;99.70;;;;;;5036719;28;19921;-67
2022/12/30 06:38:32;;;;;;;;;;;25.40;99.50;;;;;;5045969;28;19962;-65
2022/12/30 06:40:59;;;;;;;;;;;25.20;99.60;;;;;;5054456;28;20655;-67
2022/12/30 06:43:25;;;;;;;;;;;25.20;99.20;;;;;;5059018;28;19916;-69
2022/12/30 06:45:52;;;;;;;;;;;25.30;99.30;;;;;;5052606;28;19946;-67
2022/12/30 06:48:19;;;;;;;;;;;25.20;98.70;;;;;;5057787;28;20003;-66
2022/12/30 06:50:45;;;;;;;;;;;25.30;98.70;;;;;;5056647;28;19923;-67
2022/12/30 06:53:12;;;;;;;;;;;25.50;98.40;;;;;;5060662;28;19908;-68
2022/12/30 06:55:39;;;;;;;;;;;25.50;98.30;;;;;;5057049;28;19916;-67
2022/12/30 06:58:06;;;;;;;;;;;25.40;98.40;;;;;;5057046;28;20011;-67
2022/12/30 07:00:33;;;;;;;;;;;25.50;98.50;;;;;;5061785;28;20296;-66
2022/12/30 07:02:59;;;;;;;;;;;25.40;98.60;;;;;;5058126;28;20428;-68
2022/12/30 07:05:26;;;;;;;;;;;25.30;99.00;;;;;;5049414;28;19916;-67
2022/12/30 07:07:53;;;;;;;;;;;25.20;99.20;;;;;;5039157;28;19909;-66
2022/12/30 07:10:19;;;;;;;;;;;25.00;99.60;;;;;;5040266;28;19935;-66
2022/12/30 07:12:46;;;;;;;;;;;24.90;99.90;;;;;;5047153;28;19915;-67
2022/12/30 07:15:13;;;;;;;;;;;24.70;99.90;;;;;;5058110;28;19917;-65
2022/12/30 07:17:39;;;;;;;;;;;24.60;99.90;;;;;;5040219;28;20264;-66
2022/12/30 07:20:06;;;;;;;;;;;24.40;99.90;;;;;;5037559;28;20363;-67
2022/12/30 07:22:33;;;;;;;;;;;24.50;99.90;;;;;;5041463;28;19970;-67
2022/12/30 07:24:59;;;;;;;;;;;24.50;99.90;;;;;;5037365;28;19920;-67
2022/12/30 07:27:26;;;;;;;;;;;24.40;99.90;;;;;;5041938;28;20349;-65
2022/12/30 07:29:53;;;;;;;;;;;24.40;99.90;;;;;;5037192;28;19962;-68
2022/12/30 07:32:19;;;;;;;;;;;24.30;99.90;;;;;;5040935;28;19992;-65
2022/12/30 07:34:46;;;;;;;;;;;24.20;99.90;;;;;;5040665;28;19968;-66
2022/12/30 07:37:13;;;;;;;;;;;24.20;99.90;;;;;;5038448;28;19916;-66
2022/12/30 07:39:39;;;;;;;;;;;24.20;99.90;;;;;;5041581;28;20007;-66
2022/12/30 07:42:06;;;;;;;;;;;24.10;99.90;;;;;;5038576;28;19912;-67
2022/12/30 07:44:32;;;;;;;;;;;24.00;99.90;;;;;;5038931;28;19924;-67
2022/12/30 07:46:59;;;;;;;;;;;24.00;99.90;;;;;;5055065;28;19915;-68
2022/12/30 07:49:26;;;;;;;;;;;24.10;99.90;;;;;;5057168;28;20290;-68
2022/12/30 07:51:52;;;;;;;;;;;24.10;99.90;;;;;;5059488;28;19919;-68
2022/12/30 07:54:19;;;;;;;;;;;24.10;99.90;;;;;;5056327;28;19916;-66
2022/12/30 07:56:46;;;;;;;;;;;24.00;99.90;;;;;;5044384;28;19992;-68
2022/12/30 07:59:12;;;;;;;;;;;24.00;99.90;;;;;;5038715;28;20037;-69
2022/12/30 08:01:39;;;;;;;;;;;24.10;99.90;;;;;;5040710;28;19916;-66
2022/12/30 08:04:06;;;;;;;;;;;24.20;99.90;;;;;;5045475;28;19921;-68
2022/12/30 08:06:33;;;;;;;;;;;24.10;99.90;;;;;;5036741;28;19919;-66
2022/12/30 08:09:03;;;;;;;;;;;24.20;99.90;;;;;;5050653;28;20272;-68
2022/12/30 08:11:30;;;;;;;;;;;24.20;99.90;;;;;;5056384;28;20262;-67
2022/12/30 08:13:57;;;;;;;;;;;24.10;99.90;;;;;;5058651;28;20384;-68
2022/12/30 08:16:23;;;;;;;;;;;24.10;99.90;;;;;;5042119;28;19912;-69
2022/12/30 08:18:50;;;;;;;;;;;24.00;99.90;;;;;;5037300;28;19909;-67
2022/12/30 08:21:17;;;;;;;;;;;23.80;99.90;;;;;;5035752;28;19908;-68
2022/12/30 08:23:44;;;;;;;;;;;23.70;99.90;;;;;;5038733;28;19978;-67
2022/12/30 08:26:12;;;;;;;;;;;23.70;99.90;;;;;;5037167;28;19931;-67
2022/12/30 08:28:39;;;;;;;;;;;23.70;99.90;;;;;;5036727;28;19908;-64
2022/12/30 08:31:06;;;;;;;;;;;23.60;99.90;;;;;;5037429;28;19956;-67
2022/12/30 08:33:33;;;;;;;;;;;23.60;99.90;;;;;;5036631;28;19919;-70
2022/12/30 08:36:10;;;;;;;;;;;23.60;99.90;;;;;;5037847;28;19921;-69
2022/12/30 08:38:44;;;;;;;;;;;23.40;99.90;;;;;;5036219;28;19951;-65
2022/12/30 08:41:13;;;;;;;;;;;23.30;99.90;;;;;;5037105;28;19948;-66
2022/12/30 08:43:40;;;;;;;;;;;23.30;99.90;;;;;;5038429;28;19927;-66
2022/12/30 08:46:06;;;;;;;;;;;23.20;99.90;;;;;;5044349;28;19913;-66
2022/12/30 08:48:33;;;;;;;;;;;23.20;99.90;;;;;;5036744;28;19909;-67
2022/12/30 08:51:00;;;;;;;;;;;23.20;99.90;;;;;;5036508;28;19916;-67
2022/12/30 08:53:27;;;;;;;;;;;23.20;99.90;;;;;;5037212;28;20614;-66
2022/12/30 08:56:00;;;;;;;;;;;23.10;99.90;;;;;;5035927;28;19913;-69
2022/12/30 08:58:27;;;;;;;;;;;23.10;99.90;;;;;;5048295;28;19909;-67
2022/12/30 09:00:53;;;;;;;;;;;23.00;99.90;;;;;;5055857;28;20357;-69
2022/12/30 09:03:20;;;;;;;;;;;23.00;99.90;;;;;;5056747;28;19920;-68
2022/12/30 09:05:51;;;;;;;;;;;22.90;99.90;;;;;;5046873;28;19992;-68
2022/12/30 09:08:18;;;;;;;;;;;22.90;99.90;;;;;;5036962;28;19916;-69
2022/12/30 09:10:45;;;;;;;;;;;22.90;99.90;;;;;;5038508;28;19909;-68
2022/12/30 09:13:12;;;;;;;;;;;22.80;99.90;;;;;;5035080;28;19913;-69
2022/12/30 09:15:38;;;;;;;;;;;22.70;99.90;;;;;;5036466;28;19920;-68
2022/12/30 09:18:05;;;;;;;;;;;22.70;99.90;;;;;;5035901;28;19909;-69
2022/12/30 09:20:32;;;;;;;;;;;22.60;99.90;;;;;;5037040;28;19936;-69
2022/12/30 09:22:58;;;;;;;;;;;22.60;99.90;;;;;;5035852;28;20007;-70
2022/12/30 09:25:25;;;;;;;;;;;22.50;99.90;;;;;;5036072;28;20009;-69
2022/12/30 09:27:51;;;;;;;;;;;22.50;99.90;;;;;;5037210;28;19909;-69
2022/12/30 09:30:18;;;;;;;;;;;22.40;99.90;;;;;;5035454;28;20540;-69
2022/12/30 09:32:45;;;;;;;;;;;22.40;99.90;;;;;;5037793;28;20272;-69
2022/12/30 09:35:11;;;;;;;;;;;22.40;99.90;;;;;;5034059;28;20393;-69
2022/12/30 09:37:38;;;;;;;;;;;22.40;99.90;;;;;;5037090;28;19908;-68
2022/12/30 09:40:05;;;;;;;;;;;22.30;99.90;;;;;;5035523;28;19912;-67
2022/12/30 09:45:27;;;;;;;;;;;22.30;99.90;;;;;;5033963;28;20063;-68
2022/12/30 09:47:57;;;;;;;;;;;22.30;99.90;;;;;;5037582;28;19916;-68
2022/12/30 09:50:24;;;;;;;;;;;22.30;99.90;;;;;;5035620;28;19912;-68
2022/12/30 09:53:16;;;;;;;;;;;22.30;99.90;;;;;;5037519;28;20000;-68
2022/12/30 09:55:52;;;;;;;;;;;22.30;99.90;;;;;;5036209;28;19959;-70
2022/12/30 09:58:24;;;;;;;;;;;22.30;99.90;;;;;;5033501;28;19908;-68
2022/12/30 10:00:52;;;;;;;;;;;22.30;99.90;;;;;;5037973;28;19909;-67
2022/12/30 10:03:19;;;;;;;;;;;22.20;99.90;;;;;;5034271;28;19944;-67
2022/12/30 10:05:46;;;;;;;;;;;22.20;99.90;;;;;;5036619;28;19995;-66
2022/12/30 10:08:18;;;;;;;;;;;22.20;99.90;;;;;;5035034;28;19913;-68
2022/12/30 10:10:47;;;;;;;;;;;22.30;99.90;;;;;;5037176;28;19909;-67
2022/12/30 10:13:26;;;;;;;;;;;22.30;99.90;;;;;;5035155;28;20421;-68
2022/12/30 10:15:53;;;;;;;;;;;22.20;99.90;;;;;;5035313;28;20269;-68
2022/12/30 10:18:38;;;;;;;;;;;22.30;99.90;;;;;;5034086;28;19935;-68
2022/12/30 10:21:05;;;;;;;;;;;22.20;99.90;;;;;;5035138;28;19909;-67
2022/12/30 10:23:35;;;;;;;;;;;22.20;99.90;;;;;;5035860;28;19948;-68
2022/12/30 10:26:14;;;;;;;;;;;22.10;99.90;;;;;;5038543;28;19917;-69
2022/12/30 10:28:46;;;;;;;;;;;22.20;99.90;;;;;;5053979;28;19908;-67
2022/12/30 10:31:18;;;;;;;;;;;22.10;99.90;;;;;;5054992;28;19912;-66
2022/12/30 10:33:47;;;;;;;;;;;22.00;99.90;;;;;;5055155;28;20357;-68
2022/12/30 10:36:34;;;;;;;;;;;22.00;99.90;;;;;;5043197;28;19919;-66
2022/12/30 10:39:06;;;;;;;;;;;22.00;99.90;;;;;;5036838;28;19937;-69
2022/12/30 10:41:42;;;;;;;;;;;22.00;99.90;;;;;;5033945;28;19916;-69
2022/12/30 10:44:30;;;;;;;;;;;22.00;99.90;;;;;;5037954;28;19952;-68
2022/12/30 10:47:05;;;;;;;;;;;22.00;99.90;;;;;;5037660;28;19931;-68
2022/12/30 10:49:35;;;;;;;;;;;22.00;99.90;;;;;;5036009;28;19909;-67
2022/12/30 10:52:02;;;;;;;;;;;22.00;99.90;;;;;;5038107;28;19963;-66
2022/12/30 10:54:29;;;;;;;;;;;22.00;99.90;;;;;;5034996;28;19963;-68
2022/12/30 10:56:56;;;;;;;;;;;22.00;99.90;;;;;;5037535;28;19955;-67
2022/12/30 10:59:24;;;;;;;;;;;21.90;99.90;;;;;;5037673;28;19951;-67
2022/12/30 11:01:58;;;;;;;;;;;21.90;99.90;;;;;;5037752;28;19913;-67
2022/12/30 11:04:35;;;;;;;;;;;21.90;99.90;;;;;;5035642;28;20385;-68
2022/12/30 11:07:03;;;;;;;;;;;21.90;99.90;;;;;;5037633;28;19920;-68
2022/12/30 11:09:30;;;;;;;;;;;21.90;99.90;;;;;;5033403;28;19912;-67
2022/12/30 11:15:12;;;;;;;;;;;22.00;99.90;;;;;;5035883;28;19936;-67
2022/12/30 11:17:50;;;;;;;;;;;22.00;99.90;;;;;;5034957;28;20688;-67
2022/12/30 11:20:17;;;;;;;;;;;22.00;99.90;;;;;;5037184;28;19909;-68
2022/12/30 11:22:53;;;;;;;;;;;22.00;99.90;;;;;;5047341;28;20648;-67
2022/12/30 11:25:28;;;;;;;;;;;22.00;99.90;;;;;;5053004;28;20190;-67
2022/12/30 11:27:56;;;;;;;;;;;22.10;99.90;;;;;;5037199;28;19964;-67
2022/12/30 11:30:34;;;;;;;;;;;22.10;99.90;;;;;;5038297;28;20011;-67
2022/12/30 11:33:03;;;;;;;;;;;22.20;99.90;;;;;;5036645;28;19939;-67
2022/12/30 11:35:36;;;;;;;;;;;22.20;99.90;;;;;;5036079;28;19921;-69
2022/12/30 11:38:07;;;;;;;;;;;22.30;99.90;;;;;;5037495;28;19996;-67
2022/12/30 11:40:35;;;;;;;;;;;22.10;99.90;;;;;;5037178;28;19916;-70
2022/12/30 11:43:09;;;;;;;;;;;22.10;99.90;;;;;;5041045;28;19920;-67
2022/12/30 11:45:38;;;;;;;;;;;22.00;99.90;;;;;;5036896;28;19955;-68
2022/12/30 11:48:14;;;;;;;;;;;21.90;99.90;;;;;;5040596;28;20254;-67
2022/12/30 11:50:48;;;;;;;;;;;21.80;99.90;;;;;;5038532;28;19954;-68
2022/12/30 11:53:17;;;;;;;;;;;21.80;99.90;;;;;;5040460;28;19909;-68
2022/12/30 11:55:50;;;;;;;;;;;21.80;99.90;;;;;;5046097;28;20006;-68
2022/12/30 11:58:18;;;;;;;;;;;21.80;99.90;;;;;;5060777;28;19931;-66
2022/12/30 12:00:46;;;;;;;;;;;21.70;99.90;;;;;;5060072;28;19913;-69
2022/12/30 12:03:14;;;;;;;;;;;21.70;99.90;;;;;;5058620;28;19928;-67
2022/12/30 12:05:42;;;;;;;;;;;21.60;99.90;;;;;;5041153;28;20372;-66
2022/12/30 12:08:21;;;;;;;;;;;21.50;99.90;;;;;;5055623;28;19909;-67
2022/12/30 12:10:52;;;;;;;;;;;21.50;99.90;;;;;;5058899;28;19951;-68
2022/12/30 12:13:23;;;;;;;;;;;21.50;99.90;;;;;;5057994;28;19913;-67
2022/12/30 12:15:54;;;;;;;;;;;21.50;99.90;;;;;;5047371;28;20011;-68
2022/12/30 12:18:23;;;;;;;;;;;21.40;99.90;;;;;;5038537;28;19912;-67
2022/12/30 12:21:05;;;;;;;;;;;21.50;99.90;;;;;;5038288;28;19909;-68
2022/12/30 12:23:54;;;;;;;;;;;21.40;99.90;;;;;;5039434;28;19916;-67
2022/12/30 12:26:47;;;;;;;;;;;21.40;99.90;;;;;;5037405;28;19913;-68
2022/12/30 12:29:14;;;;;;;;;;;21.50;99.90;;;;;;5034036;28;19955;-66
2022/12/30 12:32:02;;;;;;;;;;;21.40;99.90;;;;;;5036790;28;19916;-68
2022/12/30 12:34:32;;;;;;;;;;;21.50;99.90;;;;;;5035016;28;19928;-68
2022/12/30 12:37:17;;;;;;;;;;;21.50;99.90;;;;;;5036207;28;20369;-70
2022/12/30 12:40:06;;;;;;;;;;;21.40;99.90;;;;;;5038992;28;19974;-71
2022/12/30 12:42:42;;;;;;;;;;;21.40;99.90;;;;;;5037098;28;19913;-68
2022/12/30 12:45:21;;;;;;;;;;;21.40;99.90;;;;;;5035860;28;19921;-69
2022/12/30 12:47:47;;;;;;;;;;;21.40;99.90;;;;;;5038996;28;19915;-68
2022/12/30 12:50:17;;;;;;;;;;;21.40;99.90;;;;;;5034995;28;19944;-68
2022/12/30 12:52:49;;;;;;;;;;;21.30;99.90;;;;;;5038810;28;19916;-68
2022/12/30 12:55:27;;;;;;;;;;;21.30;99.90;;;;;;5034210;28;19909;-69
2022/12/30 12:57:57;;;;;;;;;;;21.30;99.90;;;;;;5036702;28;19956;-70
2022/12/30 13:00:25;;;;;;;;;;;21.40;99.90;;;;;;5036678;28;19909;-68
2022/12/30 13:02:52;;;;;;;;;;;21.20;99.90;;;;;;5039095;28;19975;-68
2022/12/30 13:05:19;;;;;;;;;;;21.30;99.90;;;;;;5035335;28;19925;-69
2022/12/30 13:08:11;;;;;;;;;;;21.20;99.90;;;;;;5038837;28;20320;-68
2022/12/30 13:10:50;;;;;;;;;;;21.10;99.90;;;;;;5037633;28;20147;-69
2022/12/30 13:13:23;;;;;;;;;;;21.00;99.90;;;;;;5036028;28;19908;-68
2022/12/30 13:15:53;;;;;;;;;;;21.00;99.90;;;;;;5037335;28;20297;-69
2022/12/30 13:18:22;;;;;;;;;;;21.00;99.90;;;;;;5035968;28;19913;-68
2022/12/30 13:20:51;;;;;;;;;;;21.00;99.90;;;;;;5037619;28;19912;-68
2022/12/30 13:23:19;;;;;;;;;;;20.90;99.90;;;;;;5035933;28;20551;-68
2022/12/30 13:26:04;;;;;;;;;;;20.90;99.90;;;;;;5037141;28;19912;-69
2022/12/30 13:28:33;;;;;;;;;;;20.90;99.90;;;;;;5037263;28;19955;-67
2022/12/30 13:31:20;;;;;;;;;;;20.80;99.90;;;;;;5037217;28;19909;-70
2022/12/30 13:33:53;;;;;;;;;;;20.80;99.90;;;;;;5037874;28;20572;-68
2022/12/30 13:36:23;;;;;;;;;;;20.70;99.90;;;;;;5035529;28;20004;-70
2022/12/30 13:39:10;;;;;;;;;;;20.80;99.90;;;;;;5038106;28;20804;-69
2022/12/30 13:41:55;;;;;;;;;;;20.70;99.90;;;;;;5037192;28;19909;-70
2022/12/30 13:44:24;;;;;;;;;;;20.70;99.90;;;;;;5035731;28;19969;-71
2022/12/30 13:46:53;;;;;;;;;;;20.70;99.90;;;;;;5037430;28;20569;-70
2022/12/30 13:49:24;;;;;;;;;;;20.70;99.90;;;;;;5036783;28;19909;-71
2022/12/30 13:52:01;;;;;;;;;;;20.60;99.90;;;;;;5037239;28;20529;-70
2022/12/30 13:54:29;;;;;;;;;;;20.70;99.90;;;;;;5034885;28;19909;-67
2022/12/30 13:56:59;;;;;;;;;;;20.70;99.90;;;;;;5036767;28;19909;-67
2022/12/30 13:59:38;;;;;;;;;;;20.60;99.90;;;;;;5035816;28;19940;-69
2022/12/30 14:02:31;;;;;;;;;;;20.70;99.90;;;;;;5035909;28;20410;-69
2022/12/30 14:04:58;;;;;;;;;;;20.70;99.90;;;;;;5036119;28;20281;-69
2022/12/30 14:07:42;;;;;;;;;;;20.70;99.90;;;;;;5036588;28;20381;-67
2022/12/30 14:10:16;;;;;;;;;;;20.80;99.90;;;;;;5036673;28;19908;-66
2022/12/30 14:12:43;;;;;;;;;;;20.70;99.90;;;;;;5034527;28;19995;-69
2022/12/30 14:15:28;;;;;;;;;;;20.80;99.90;;;;;;5036369;28;19916;-69
2022/12/30 14:17:55;;;;;;;;;;;20.80;99.90;;;;;;5036811;28;19963;-69
2022/12/30 14:20:25;;;;;;;;;;;20.80;99.90;;;;;;5036888;28;19909;-70
2022/12/30 14:22:51;;;;;;;;;;;20.70;99.90;;;;;;5036249;28;20408;-69
2022/12/30 14:25:27;;;;;;;;;;;20.70;99.90;;;;;;5036559;28;19959;-69
2022/12/30 14:27:59;;;;;;;;;;;20.70;99.90;;;;;;5036470;28;19915;-70
2022/12/30 14:30:29;;;;;;;;;;;20.70;99.90;;;;;;5036443;28;19916;-69
2022/12/30 14:33:00;;;;;;;;;;;20.70;99.90;;;;;;5036821;28;19909;-70
2022/12/30 14:35:27;;;;;;;;;;;20.60;99.90;;;;;;5036518;28;20428;-69
2022/12/30 14:38:13;;;;;;;;;;;20.60;99.90;;;;;;5039250;28;19912;-69
2022/12/30 14:40:39;;;;;;;;;;;20.60;99.90;;;;;;5056108;28;20277;-70
2022/12/30 14:43:17;;;;;;;;;;;20.50;99.90;;;;;;5054383;28;20003;-68
2022/12/30 14:45:44;;;;;;;;;;;20.40;99.90;;;;;;5055437;28;19920;-70
2022/12/30 14:48:11;;;;;;;;;;;20.40;99.90;;;;;;5056848;28;20348;-68
2022/12/30 14:50:38;;;;;;;;;;;20.40;99.90;;;;;;5055086;28;19991;-69
2022/12/30 14:53:11;;;;;;;;;;;20.40;99.90;;;;;;5055602;28;19908;-71
2022/12/30 14:55:45;;;;;;;;;;;20.30;99.90;;;;;;5054600;28;19909;-69
2022/12/30 14:58:16;;;;;;;;;;;20.30;99.90;;;;;;5056605;28;19915;-69
2022/12/30 15:00:44;;;;;;;;;;;20.30;99.90;;;;;;5055596;28;20007;-67
2022/12/30 15:03:15;;;;;;;;;;;20.30;99.90;;;;;;5055986;28;19913;-69
2022/12/30 15:06:00;;;;;;;;;;;20.30;99.90;;;;;;5054595;28;19912;-70
2022/12/30 15:08:32;;;;;;;;;;;20.20;99.90;;;;;;5055537;28;19913;-69
2022/12/30 15:11:08;;;;;;;;;;;20.20;99.90;;;;;;5055300;28;19908;-69
2022/12/30 15:13:49;;;;;;;;;;;20.20;99.90;;;;;;5057183;28;20199;-69
2022/12/30 15:16:16;;;;;;;;;;;20.20;99.90;;;;;;5060103;28;19909;-70
2022/12/30 15:18:43;;;;;;;;;;;20.20;99.90;;;;;;5058832;28;20215;-69
2022/12/30 15:21:19;;;;;;;;;;;20.20;99.90;;;;;;5059204;28;20260;-68